sensor_id;sensor_type;location;lat;lon;timestamp;P1;durP1;ratioP1;P2;durP2;ratioP2
26600;SDS011;14241;49.260;10.496;2023-07-16T00:02:01;4.43;;;3.07;;
26600;SDS011;14241;49.260;10.496;2023-07-16T00:04:26;5.55;;;2.90;;
26600;SDS011;14241;49.260;10.496;2023-07-16T00:06:51;5.20;;;3.43;;
26600;SDS011;14241;49.260;10.496;2023-07-16T00:09:17;4.70;;;3.00;;
26600;SDS011;14241;49.260;10.496;2023-07-16T00:11:42;3.10;;;2.63;;
26600;SDS011;14241;49.260;10.496;2023-07-16T00:14:07;4.40;;;2.93;;
26600;SDS011;14241;49.260;10.496;2023-07-16T00:16:32;4.33;;;3.10;;
26600;SDS011;14241;49.260;10.496;2023-07-16T00:18:58;5.88;;;3.08;;
26600;SDS011;14241;49.260;10.496;2023-07-16T00:21:23;5.57;;;3.40;;
26600;SDS011;14241;49.260;10.496;2023-07-16T00:23:48;3.85;;;3.15;;
26600;SDS011;14241;49.260;10.496;2023-07-16T00:26:14;7.03;;;2.65;;
26600;SDS011;14241;49.260;10.496;2023-07-16T00:28:39;4.73;;;3.10;;
26600;SDS011;14241;49.260;10.496;2023-07-16T00:31:04;5.67;;;3.03;;
26600;SDS011;14241;49.260;10.496;2023-07-16T00:33:29;4.03;;;2.67;;
26600;SDS011;14241;49.260;10.496;2023-07-16T00:35:55;5.95;;;2.63;;
26600;SDS011;14241;49.260;10.496;2023-07-16T00:38:20;7.77;;;2.60;;
26600;SDS011;14241;49.260;10.496;2023-07-16T00:40:45;4.83;;;2.03;;
26600;SDS011;14241;49.260;10.496;2023-07-16T00:43:11;3.50;;;1.67;;
26600;SDS011;14241;49.260;10.496;2023-07-16T00:45:36;2.90;;;1.70;;
26600;SDS011;14241;49.260;10.496;2023-07-16T00:48:01;3.58;;;1.88;;
26600;SDS011;14241;49.260;10.496;2023-07-16T00:50:27;2.95;;;1.90;;
26600;SDS011;14241;49.260;10.496;2023-07-16T00:52:52;7.95;;;1.67;;
26600;SDS011;14241;49.260;10.496;2023-07-16T00:55:18;4.07;;;1.77;;
26600;SDS011;14241;49.260;10.496;2023-07-16T00:57:43;2.20;;;1.70;;
26600;SDS011;14241;49.260;10.496;2023-07-16T01:00:10;2.42;;;1.30;;
26600;SDS011;14241;49.260;10.496;2023-07-16T01:02:35;2.13;;;1.50;;
26600;SDS011;14241;49.260;10.496;2023-07-16T01:05:00;3.00;;;1.40;;
26600;SDS011;14241;49.260;10.496;2023-07-16T01:07:26;4.32;;;1.73;;
26600;SDS011;14241;49.260;10.496;2023-07-16T01:09:52;5.20;;;1.70;;
26600;SDS011;14241;49.260;10.496;2023-07-16T01:12:18;2.40;;;1.38;;
26600;SDS011;14241;49.260;10.496;2023-07-16T01:14:45;2.80;;;1.63;;
26600;SDS011;14241;49.260;10.496;2023-07-16T01:17:11;3.95;;;1.23;;
26600;SDS011;14241;49.260;10.496;2023-07-16T01:19:36;2.37;;;1.30;;
26600;SDS011;14241;49.260;10.496;2023-07-16T01:24:35;1.85;;;1.23;;
26600;SDS011;14241;49.260;10.496;2023-07-16T01:29:54;2.97;;;1.10;;
26600;SDS011;14241;49.260;10.496;2023-07-16T01:32:19;4.38;;;1.42;;
26600;SDS011;14241;49.260;10.496;2023-07-16T01:34:45;1.40;;;0.93;;
26600;SDS011;14241;49.260;10.496;2023-07-16T01:37:11;2.50;;;1.20;;
26600;SDS011;14241;49.260;10.496;2023-07-16T01:39:36;3.88;;;1.20;;
26600;SDS011;14241;49.260;10.496;2023-07-16T01:42:02;3.58;;;0.90;;
26600;SDS011;14241;49.260;10.496;2023-07-16T01:44:27;1.40;;;0.88;;
26600;SDS011;14241;49.260;10.496;2023-07-16T01:47:06;1.93;;;1.10;;
26600;SDS011;14241;49.260;10.496;2023-07-16T01:49:32;4.13;;;0.85;;
26600;SDS011;14241;49.260;10.496;2023-07-16T01:51:57;1.08;;;0.70;;
26600;SDS011;14241;49.260;10.496;2023-07-16T01:54:22;2.50;;;1.03;;
26600;SDS011;14241;49.260;10.496;2023-07-16T01:56:47;1.33;;;0.77;;
26600;SDS011;14241;49.260;10.496;2023-07-16T01:59:12;1.73;;;0.80;;
26600;SDS011;14241;49.260;10.496;2023-07-16T02:01:38;1.40;;;0.90;;
26600;SDS011;14241;49.260;10.496;2023-07-16T02:04:03;3.50;;;1.10;;
26600;SDS011;14241;49.260;10.496;2023-07-16T02:06:28;4.13;;;0.80;;
26600;SDS011;14241;49.260;10.496;2023-07-16T02:08:54;1.48;;;0.93;;
26600;SDS011;14241;49.260;10.496;2023-07-16T02:11:19;1.58;;;0.93;;
26600;SDS011;14241;49.260;10.496;2023-07-16T02:13:44;2.60;;;0.87;;
26600;SDS011;14241;49.260;10.496;2023-07-16T02:16:09;1.07;;;0.90;;
26600;SDS011;14241;49.260;10.496;2023-07-16T02:18:35;2.40;;;0.97;;
26600;SDS011;14241;49.260;10.496;2023-07-16T02:21:00;1.93;;;1.00;;
26600;SDS011;14241;49.260;10.496;2023-07-16T02:23:27;5.00;;;2.00;;
26600;SDS011;14241;49.260;10.496;2023-07-16T02:25:52;4.27;;;1.10;;
26600;SDS011;14241;49.260;10.496;2023-07-16T02:28:17;2.77;;;1.03;;
26600;SDS011;14241;49.260;10.496;2023-07-16T02:30:42;4.83;;;1.30;;
26600;SDS011;14241;49.260;10.496;2023-07-16T02:33:07;2.13;;;0.90;;
26600;SDS011;14241;49.260;10.496;2023-07-16T02:35:33;1.67;;;1.00;;
26600;SDS011;14241;49.260;10.496;2023-07-16T02:37:58;1.20;;;1.07;;
26600;SDS011;14241;49.260;10.496;2023-07-16T02:40:23;1.77;;;1.00;;
26600;SDS011;14241;49.260;10.496;2023-07-16T02:42:48;1.30;;;0.93;;
26600;SDS011;14241;49.260;10.496;2023-07-16T02:45:13;1.87;;;0.90;;
26600;SDS011;14241;49.260;10.496;2023-07-16T02:47:38;2.43;;;0.97;;
26600;SDS011;14241;49.260;10.496;2023-07-16T02:50:04;3.13;;;0.90;;
26600;SDS011;14241;49.260;10.496;2023-07-16T02:52:29;1.42;;;1.13;;
26600;SDS011;14241;49.260;10.496;2023-07-16T02:54:54;1.87;;;0.90;;
26600;SDS011;14241;49.260;10.496;2023-07-16T02:57:20;3.00;;;1.10;;
26600;SDS011;14241;49.260;10.496;2023-07-16T02:59:46;3.58;;;1.20;;
26600;SDS011;14241;49.260;10.496;2023-07-16T03:02:11;1.73;;;1.10;;
26600;SDS011;14241;49.260;10.496;2023-07-16T03:04:36;2.10;;;1.00;;
26600;SDS011;14241;49.260;10.496;2023-07-16T03:07:01;2.60;;;0.80;;
26600;SDS011;14241;49.260;10.496;2023-07-16T03:09:26;1.60;;;0.90;;
26600;SDS011;14241;49.260;10.496;2023-07-16T03:11:52;1.00;;;0.90;;
26600;SDS011;14241;49.260;10.496;2023-07-16T03:14:17;0.80;;;0.70;;
26600;SDS011;14241;49.260;10.496;2023-07-16T03:16:42;1.40;;;1.00;;
26600;SDS011;14241;49.260;10.496;2023-07-16T03:19:07;0.90;;;0.80;;
26600;SDS011;14241;49.260;10.496;2023-07-16T03:21:32;1.57;;;0.70;;
26600;SDS011;14241;49.260;10.496;2023-07-16T03:23:57;3.27;;;0.90;;
26600;SDS011;14241;49.260;10.496;2023-07-16T03:26:23;3.13;;;0.93;;
26600;SDS011;14241;49.260;10.496;2023-07-16T03:28:48;1.27;;;0.82;;
26600;SDS011;14241;49.260;10.496;2023-07-16T03:31:13;1.37;;;1.03;;
26600;SDS011;14241;49.260;10.496;2023-07-16T03:33:38;2.53;;;0.60;;
26600;SDS011;14241;49.260;10.496;2023-07-16T03:36:03;3.37;;;0.97;;
26600;SDS011;14241;49.260;10.496;2023-07-16T03:38:29;1.90;;;1.10;;
26600;SDS011;14241;49.260;10.496;2023-07-16T03:40:54;1.43;;;0.83;;
26600;SDS011;14241;49.260;10.496;2023-07-16T03:43:19;1.40;;;0.90;;
26600;SDS011;14241;49.260;10.496;2023-07-16T03:45:45;2.03;;;0.95;;
26600;SDS011;14241;49.260;10.496;2023-07-16T03:48:10;1.35;;;0.93;;
26600;SDS011;14241;49.260;10.496;2023-07-16T03:50:35;1.30;;;0.90;;
26600;SDS011;14241;49.260;10.496;2023-07-16T03:53:01;1.00;;;0.77;;
26600;SDS011;14241;49.260;10.496;2023-07-16T03:55:28;1.52;;;1.27;;
26600;SDS011;14241;49.260;10.496;2023-07-16T03:57:53;2.35;;;1.00;;
26600;SDS011;14241;49.260;10.496;2023-07-16T04:00:18;2.20;;;0.97;;
26600;SDS011;14241;49.260;10.496;2023-07-16T04:02:43;4.07;;;1.10;;
26600;SDS011;14241;49.260;10.496;2023-07-16T04:05:09;4.03;;;1.20;;
26600;SDS011;14241;49.260;10.496;2023-07-16T04:07:34;1.30;;;1.08;;
26600;SDS011;14241;49.260;10.496;2023-07-16T04:10:00;4.90;;;1.30;;
26600;SDS011;14241;49.260;10.496;2023-07-16T04:12:25;1.83;;;1.07;;
26600;SDS011;14241;49.260;10.496;2023-07-16T04:14:53;3.87;;;1.20;;
26600;SDS011;14241;49.260;10.496;2023-07-16T04:17:19;1.63;;;1.15;;
26600;SDS011;14241;49.260;10.496;2023-07-16T04:19:44;2.83;;;1.02;;
26600;SDS011;14241;49.260;10.496;2023-07-16T04:22:09;1.93;;;0.90;;
26600;SDS011;14241;49.260;10.496;2023-07-16T04:24:34;3.60;;;1.23;;
26600;SDS011;14241;49.260;10.496;2023-07-16T04:26:59;1.87;;;1.13;;
26600;SDS011;14241;49.260;10.496;2023-07-16T04:29:25;4.30;;;1.20;;
26600;SDS011;14241;49.260;10.496;2023-07-16T04:31:50;3.87;;;1.60;;
26600;SDS011;14241;49.260;10.496;2023-07-16T04:34:15;2.40;;;1.10;;
26600;SDS011;14241;49.260;10.496;2023-07-16T04:36:41;1.50;;;0.90;;
26600;SDS011;14241;49.260;10.496;2023-07-16T04:39:07;2.95;;;1.10;;
26600;SDS011;14241;49.260;10.496;2023-07-16T04:41:32;2.07;;;1.10;;
26600;SDS011;14241;49.260;10.496;2023-07-16T04:43:57;2.17;;;1.10;;
26600;SDS011;14241;49.260;10.496;2023-07-16T04:46:22;4.80;;;1.10;;
26600;SDS011;14241;49.260;10.496;2023-07-16T04:48:47;4.47;;;1.40;;
26600;SDS011;14241;49.260;10.496;2023-07-16T04:51:13;2.90;;;1.40;;
26600;SDS011;14241;49.260;10.496;2023-07-16T04:53:38;3.15;;;1.25;;
26600;SDS011;14241;49.260;10.496;2023-07-16T04:56:03;2.27;;;1.30;;
26600;SDS011;14241;49.260;10.496;2023-07-16T04:58:28;2.33;;;1.20;;
26600;SDS011;14241;49.260;10.496;2023-07-16T05:00:53;3.63;;;1.13;;
26600;SDS011;14241;49.260;10.496;2023-07-16T05:03:19;2.43;;;1.20;;
26600;SDS011;14241;49.260;10.496;2023-07-16T05:05:44;2.22;;;1.08;;
26600;SDS011;14241;49.260;10.496;2023-07-16T05:08:09;2.23;;;1.10;;
26600;SDS011;14241;49.260;10.496;2023-07-16T05:10:34;3.77;;;1.13;;
26600;SDS011;14241;49.260;10.496;2023-07-16T05:13:00;3.50;;;1.30;;
26600;SDS011;14241;49.260;10.496;2023-07-16T05:15:25;3.03;;;1.00;;
26600;SDS011;14241;49.260;10.496;2023-07-16T05:17:50;2.93;;;1.30;;
26600;SDS011;14241;49.260;10.496;2023-07-16T05:20:15;4.43;;;1.52;;
26600;SDS011;14241;49.260;10.496;2023-07-16T05:22:40;4.30;;;1.33;;
26600;SDS011;14241;49.260;10.496;2023-07-16T05:25:06;2.73;;;1.00;;
26600;SDS011;14241;49.260;10.496;2023-07-16T05:27:31;2.75;;;1.02;;
26600;SDS011;14241;49.260;10.496;2023-07-16T05:29:56;3.47;;;1.03;;
26600;SDS011;14241;49.260;10.496;2023-07-16T05:32:21;3.77;;;1.20;;
26600;SDS011;14241;49.260;10.496;2023-07-16T05:34:47;4.83;;;1.23;;
26600;SDS011;14241;49.260;10.496;2023-07-16T05:37:12;3.23;;;1.27;;
26600;SDS011;14241;49.260;10.496;2023-07-16T05:39:37;4.88;;;1.10;;
26600;SDS011;14241;49.260;10.496;2023-07-16T05:42:02;3.60;;;1.80;;
26600;SDS011;14241;49.260;10.496;2023-07-16T05:44:28;3.28;;;1.40;;
26600;SDS011;14241;49.260;10.496;2023-07-16T05:46:53;2.90;;;1.35;;
26600;SDS011;14241;49.260;10.496;2023-07-16T05:49:19;4.97;;;1.58;;
26600;SDS011;14241;49.260;10.496;2023-07-16T05:51:44;3.80;;;1.30;;
26600;SDS011;14241;49.260;10.496;2023-07-16T05:54:09;2.87;;;1.20;;
26600;SDS011;14241;49.260;10.496;2023-07-16T05:56:34;3.50;;;1.47;;
26600;SDS011;14241;49.260;10.496;2023-07-16T05:58:59;3.77;;;1.47;;
26600;SDS011;14241;49.260;10.496;2023-07-16T06:01:25;4.23;;;1.37;;
26600;SDS011;14241;49.260;10.496;2023-07-16T06:03:50;4.10;;;1.30;;
26600;SDS011;14241;49.260;10.496;2023-07-16T06:06:15;8.10;;;1.47;;
26600;SDS011;14241;49.260;10.496;2023-07-16T06:08:40;3.67;;;1.50;;
26600;SDS011;14241;49.260;10.496;2023-07-16T06:11:05;3.47;;;1.43;;
26600;SDS011;14241;49.260;10.496;2023-07-16T06:13:31;4.13;;;1.40;;
26600;SDS011;14241;49.260;10.496;2023-07-16T06:15:56;4.95;;;1.55;;
26600;SDS011;14241;49.260;10.496;2023-07-16T06:18:21;5.25;;;1.60;;
26600;SDS011;14241;49.260;10.496;2023-07-16T06:20:46;11.40;;;1.90;;
26600;SDS011;14241;49.260;10.496;2023-07-16T06:23:12;4.70;;;1.20;;
26600;SDS011;14241;49.260;10.496;2023-07-16T06:25:37;5.95;;;1.80;;
26600;SDS011;14241;49.260;10.496;2023-07-16T06:28:05;6.20;;;1.98;;
26600;SDS011;14241;49.260;10.496;2023-07-16T06:30:30;6.97;;;1.70;;
26600;SDS011;14241;49.260;10.496;2023-07-16T06:32:57;6.40;;;1.60;;
26600;SDS011;14241;49.260;10.496;2023-07-16T06:35:22;3.83;;;1.60;;
26600;SDS011;14241;49.260;10.496;2023-07-16T06:37:47;4.53;;;1.70;;
26600;SDS011;14241;49.260;10.496;2023-07-16T06:40:12;5.30;;;1.43;;
26600;SDS011;14241;49.260;10.496;2023-07-16T06:42:38;3.35;;;1.80;;
26600;SDS011;14241;49.260;10.496;2023-07-16T06:45:03;7.30;;;1.80;;
26600;SDS011;14241;49.260;10.496;2023-07-16T06:47:28;7.25;;;1.88;;
26600;SDS011;14241;49.260;10.496;2023-07-16T06:49:53;4.87;;;1.57;;
26600;SDS011;14241;49.260;10.496;2023-07-16T06:52:22;4.10;;;1.37;;
26600;SDS011;14241;49.260;10.496;2023-07-16T06:54:48;5.18;;;1.52;;
26600;SDS011;14241;49.260;10.496;2023-07-16T06:57:13;5.82;;;1.50;;
26600;SDS011;14241;49.260;10.496;2023-07-16T06:59:38;3.40;;;1.52;;
26600;SDS011;14241;49.260;10.496;2023-07-16T07:02:03;8.07;;;1.70;;
26600;SDS011;14241;49.260;10.496;2023-07-16T07:04:29;5.20;;;2.08;;
26600;SDS011;14241;49.260;10.496;2023-07-16T07:06:54;3.97;;;1.37;;
26600;SDS011;14241;49.260;10.496;2023-07-16T07:09:19;6.57;;;1.80;;
26600;SDS011;14241;49.260;10.496;2023-07-16T07:11:44;4.83;;;1.50;;
26600;SDS011;14241;49.260;10.496;2023-07-16T07:14:09;6.40;;;1.70;;
26600;SDS011;14241;49.260;10.496;2023-07-16T07:16:35;5.63;;;1.40;;
26600;SDS011;14241;49.260;10.496;2023-07-16T07:19:00;5.37;;;1.63;;
26600;SDS011;14241;49.260;10.496;2023-07-16T07:21:25;3.53;;;1.60;;
26600;SDS011;14241;49.260;10.496;2023-07-16T07:23:50;7.43;;;1.70;;
26600;SDS011;14241;49.260;10.496;2023-07-16T07:26:15;5.80;;;1.88;;
26600;SDS011;14241;49.260;10.496;2023-07-16T07:28:41;9.47;;;1.70;;
26600;SDS011;14241;49.260;10.496;2023-07-16T07:31:06;4.33;;;1.50;;
26600;SDS011;14241;49.260;10.496;2023-07-16T07:33:31;9.60;;;2.10;;
26600;SDS011;14241;49.260;10.496;2023-07-16T07:35:57;5.82;;;1.75;;
26600;SDS011;14241;49.260;10.496;2023-07-16T07:38:22;4.63;;;1.77;;
26600;SDS011;14241;49.260;10.496;2023-07-16T07:40:47;6.50;;;1.70;;
26600;SDS011;14241;49.260;10.496;2023-07-16T07:43:13;6.07;;;1.70;;
26600;SDS011;14241;49.260;10.496;2023-07-16T07:45:38;4.50;;;1.63;;
26600;SDS011;14241;49.260;10.496;2023-07-16T07:48:03;4.93;;;1.73;;
26600;SDS011;14241;49.260;10.496;2023-07-16T07:50:28;3.67;;;1.48;;
26600;SDS011;14241;49.260;10.496;2023-07-16T07:52:54;5.85;;;1.67;;
26600;SDS011;14241;49.260;10.496;2023-07-16T07:55:19;7.82;;;2.05;;
26600;SDS011;14241;49.260;10.496;2023-07-16T07:57:44;5.33;;;1.30;;
26600;SDS011;14241;49.260;10.496;2023-07-16T08:00:09;7.03;;;2.27;;
26600;SDS011;14241;49.260;10.496;2023-07-16T08:02:36;7.57;;;2.05;;
26600;SDS011;14241;49.260;10.496;2023-07-16T08:05:02;7.57;;;1.53;;
26600;SDS011;14241;49.260;10.496;2023-07-16T08:07:27;5.67;;;1.63;;
26600;SDS011;14241;49.260;10.496;2023-07-16T08:09:52;6.50;;;1.83;;
26600;SDS011;14241;49.260;10.496;2023-07-16T08:12:17;8.03;;;1.90;;
26600;SDS011;14241;49.260;10.496;2023-07-16T08:14:42;5.23;;;1.60;;
26600;SDS011;14241;49.260;10.496;2023-07-16T08:17:08;7.47;;;1.87;;
26600;SDS011;14241;49.260;10.496;2023-07-16T08:19:33;4.33;;;1.73;;
26600;SDS011;14241;49.260;10.496;2023-07-16T08:21:58;6.73;;;1.63;;
26600;SDS011;14241;49.260;10.496;2023-07-16T08:24:24;6.30;;;1.60;;
26600;SDS011;14241;49.260;10.496;2023-07-16T08:26:49;4.85;;;1.85;;
26600;SDS011;14241;49.260;10.496;2023-07-16T08:29:14;6.33;;;1.70;;
26600;SDS011;14241;49.260;10.496;2023-07-16T08:31:39;4.73;;;1.80;;
26600;SDS011;14241;49.260;10.496;2023-07-16T08:34:05;6.28;;;1.90;;
26600;SDS011;14241;49.260;10.496;2023-07-16T08:36:32;5.83;;;1.67;;
26600;SDS011;14241;49.260;10.496;2023-07-16T08:38:57;6.68;;;2.00;;
26600;SDS011;14241;49.260;10.496;2023-07-16T08:41:23;7.90;;;1.80;;
26600;SDS011;14241;49.260;10.496;2023-07-16T08:43:49;5.25;;;1.90;;
26600;SDS011;14241;49.260;10.496;2023-07-16T08:46:15;6.93;;;2.10;;
26600;SDS011;14241;49.260;10.496;2023-07-16T08:48:40;4.35;;;1.67;;
26600;SDS011;14241;49.260;10.496;2023-07-16T08:51:05;5.20;;;1.75;;
26600;SDS011;14241;49.260;10.496;2023-07-16T08:53:31;5.90;;;1.58;;
26600;SDS011;14241;49.260;10.496;2023-07-16T08:55:56;4.97;;;1.90;;
26600;SDS011;14241;49.260;10.496;2023-07-16T08:58:23;6.90;;;1.60;;
26600;SDS011;14241;49.260;10.496;2023-07-16T09:00:48;4.72;;;1.52;;
26600;SDS011;14241;49.260;10.496;2023-07-16T09:03:14;4.72;;;1.60;;
26600;SDS011;14241;49.260;10.496;2023-07-16T09:05:41;6.05;;;1.73;;
26600;SDS011;14241;49.260;10.496;2023-07-16T09:08:07;5.68;;;1.52;;
26600;SDS011;14241;49.260;10.496;2023-07-16T09:10:32;4.47;;;1.58;;
26600;SDS011;14241;49.260;10.496;2023-07-16T09:12:58;5.20;;;1.70;;
26600;SDS011;14241;49.260;10.496;2023-07-16T09:15:23;6.40;;;1.70;;
26600;SDS011;14241;49.260;10.496;2023-07-16T09:17:48;3.87;;;1.50;;
26600;SDS011;14241;49.260;10.496;2023-07-16T09:20:15;7.35;;;1.67;;
26600;SDS011;14241;49.260;10.496;2023-07-16T09:22:40;6.05;;;1.83;;
26600;SDS011;14241;49.260;10.496;2023-07-16T09:25:05;4.53;;;1.50;;
26600;SDS011;14241;49.260;10.496;2023-07-16T09:27:31;6.80;;;1.47;;
26600;SDS011;14241;49.260;10.496;2023-07-16T09:29:56;4.78;;;1.42;;
26600;SDS011;14241;49.260;10.496;2023-07-16T09:32:21;7.85;;;1.52;;
26600;SDS011;14241;49.260;10.496;2023-07-16T09:34:49;5.83;;;1.93;;
26600;SDS011;14241;49.260;10.496;2023-07-16T09:37:14;5.45;;;1.40;;
26600;SDS011;14241;49.260;10.496;2023-07-16T09:39:39;3.20;;;1.20;;
26600;SDS011;14241;49.260;10.496;2023-07-16T09:42:05;4.53;;;1.75;;
26600;SDS011;14241;49.260;10.496;2023-07-16T09:44:31;6.85;;;2.03;;
26600;SDS011;14241;49.260;10.496;2023-07-16T09:46:56;4.30;;;1.60;;
26600;SDS011;14241;49.260;10.496;2023-07-16T09:49:22;6.43;;;1.73;;
26600;SDS011;14241;49.260;10.496;2023-07-16T09:51:47;6.13;;;1.73;;
26600;SDS011;14241;49.260;10.496;2023-07-16T09:54:13;4.00;;;1.40;;
26600;SDS011;14241;49.260;10.496;2023-07-16T09:56:57;9.20;;;2.03;;
26600;SDS011;14241;49.260;10.496;2023-07-16T09:59:27;3.67;;;1.27;;
26600;SDS011;14241;49.260;10.496;2023-07-16T10:01:54;3.55;;;1.85;;
26600;SDS011;14241;49.260;10.496;2023-07-16T10:04:20;4.38;;;1.40;;
26600;SDS011;14241;49.260;10.496;2023-07-16T10:06:48;5.93;;;1.70;;
26600;SDS011;14241;49.260;10.496;2023-07-16T10:09:14;6.28;;;1.63;;
26600;SDS011;14241;49.260;10.496;2023-07-16T10:11:40;5.93;;;1.57;;
26600;SDS011;14241;49.260;10.496;2023-07-16T10:14:06;5.55;;;1.58;;
26600;SDS011;14241;49.260;10.496;2023-07-16T10:16:35;9.13;;;1.80;;
26600;SDS011;14241;49.260;10.496;2023-07-16T10:19:02;6.15;;;1.98;;
26600;SDS011;14241;49.260;10.496;2023-07-16T10:21:27;5.13;;;1.90;;
26600;SDS011;14241;49.260;10.496;2023-07-16T10:23:56;9.67;;;1.63;;
26600;SDS011;14241;49.260;10.496;2023-07-16T10:26:25;2.53;;;1.42;;
26600;SDS011;14241;49.260;10.496;2023-07-16T10:28:51;5.18;;;1.58;;
26600;SDS011;14241;49.260;10.496;2023-07-16T10:31:23;6.57;;;1.57;;
26600;SDS011;14241;49.260;10.496;2023-07-16T10:36:26;5.43;;;1.40;;
26600;SDS011;14241;49.260;10.496;2023-07-16T10:38:51;4.40;;;1.77;;
26600;SDS011;14241;49.260;10.496;2023-07-16T10:41:16;4.37;;;1.57;;
26600;SDS011;14241;49.260;10.496;2023-07-16T10:43:42;3.90;;;1.30;;
26600;SDS011;14241;49.260;10.496;2023-07-16T10:46:08;5.63;;;1.40;;
26600;SDS011;14241;49.260;10.496;2023-07-16T10:48:33;4.63;;;1.77;;
26600;SDS011;14241;49.260;10.496;2023-07-16T10:50:59;3.93;;;1.43;;
26600;SDS011;14241;49.260;10.496;2023-07-16T10:53:24;6.90;;;2.10;;
26600;SDS011;14241;49.260;10.496;2023-07-16T10:55:49;5.00;;;1.73;;
26600;SDS011;14241;49.260;10.496;2023-07-16T10:58:14;7.00;;;1.87;;
26600;SDS011;14241;49.260;10.496;2023-07-16T11:00:39;3.88;;;1.70;;
26600;SDS011;14241;49.260;10.496;2023-07-16T11:03:05;4.17;;;1.60;;
26600;SDS011;14241;49.260;10.496;2023-07-16T11:05:30;6.45;;;1.70;;
26600;SDS011;14241;49.260;10.496;2023-07-16T11:07:55;5.90;;;1.43;;
26600;SDS011;14241;49.260;10.496;2023-07-16T11:10:22;6.07;;;1.98;;
26600;SDS011;14241;49.260;10.496;2023-07-16T11:12:51;5.47;;;1.90;;
26600;SDS011;14241;49.260;10.496;2023-07-16T11:15:17;3.95;;;1.40;;
26600;SDS011;14241;49.260;10.496;2023-07-16T11:17:42;4.13;;;1.43;;
26600;SDS011;14241;49.260;10.496;2023-07-16T11:20:07;4.73;;;1.37;;
26600;SDS011;14241;49.260;10.496;2023-07-16T11:22:36;4.60;;;1.50;;
26600;SDS011;14241;49.260;10.496;2023-07-16T11:25:01;4.20;;;1.70;;
26600;SDS011;14241;49.260;10.496;2023-07-16T11:27:29;2.92;;;1.42;;
26600;SDS011;14241;49.260;10.496;2023-07-16T11:29:56;2.65;;;1.20;;
26600;SDS011;14241;49.260;10.496;2023-07-16T11:34:53;4.00;;;1.63;;
26600;SDS011;14241;49.260;10.496;2023-07-16T11:37:18;5.47;;;1.70;;
26600;SDS011;14241;49.260;10.496;2023-07-16T11:39:46;3.70;;;1.42;;
26600;SDS011;14241;49.260;10.496;2023-07-16T11:42:11;4.20;;;1.60;;
26600;SDS011;14241;49.260;10.496;2023-07-16T11:44:36;7.27;;;1.67;;
26600;SDS011;14241;49.260;10.496;2023-07-16T11:47:02;3.43;;;1.30;;
26600;SDS011;14241;49.260;10.496;2023-07-16T11:49:27;5.22;;;1.50;;
26600;SDS011;14241;49.260;10.496;2023-07-16T11:51:52;4.57;;;1.42;;
26600;SDS011;14241;49.260;10.496;2023-07-16T11:54:18;4.30;;;1.37;;
26600;SDS011;14241;49.260;10.496;2023-07-16T11:56:43;6.90;;;1.80;;
26600;SDS011;14241;49.260;10.496;2023-07-16T11:59:08;5.13;;;1.33;;
26600;SDS011;14241;49.260;10.496;2023-07-16T12:01:33;2.43;;;1.37;;
26600;SDS011;14241;49.260;10.496;2023-07-16T12:03:58;3.63;;;1.40;;
26600;SDS011;14241;49.260;10.496;2023-07-16T12:06:23;2.50;;;1.33;;
26600;SDS011;14241;49.260;10.496;2023-07-16T12:08:48;2.47;;;1.10;;
26600;SDS011;14241;49.260;10.496;2023-07-16T12:11:14;2.83;;;1.02;;
26600;SDS011;14241;49.260;10.496;2023-07-16T12:13:39;2.53;;;1.33;;
26600;SDS011;14241;49.260;10.496;2023-07-16T12:16:04;3.13;;;1.43;;
26600;SDS011;14241;49.260;10.496;2023-07-16T12:18:30;4.22;;;1.40;;
26600;SDS011;14241;49.260;10.496;2023-07-16T12:20:56;2.20;;;1.40;;
26600;SDS011;14241;49.260;10.496;2023-07-16T12:23:21;2.50;;;1.10;;
26600;SDS011;14241;49.260;10.496;2023-07-16T12:25:46;2.67;;;1.17;;
26600;SDS011;14241;49.260;10.496;2023-07-16T12:28:12;4.93;;;1.50;;
26600;SDS011;14241;49.260;10.496;2023-07-16T12:30:37;3.60;;;1.43;;
26600;SDS011;14241;49.260;10.496;2023-07-16T12:33:02;2.93;;;1.40;;
26600;SDS011;14241;49.260;10.496;2023-07-16T12:35:29;3.92;;;1.60;;
26600;SDS011;14241;49.260;10.496;2023-07-16T12:37:54;4.17;;;1.40;;
26600;SDS011;14241;49.260;10.496;2023-07-16T12:40:19;4.80;;;1.60;;
26600;SDS011;14241;49.260;10.496;2023-07-16T12:42:44;2.40;;;1.40;;
26600;SDS011;14241;49.260;10.496;2023-07-16T12:45:09;4.83;;;1.30;;
26600;SDS011;14241;49.260;10.496;2023-07-16T12:47:35;3.83;;;1.60;;
26600;SDS011;14241;49.260;10.496;2023-07-16T12:50:00;4.13;;;1.45;;
26600;SDS011;14241;49.260;10.496;2023-07-16T12:52:25;2.72;;;0.95;;
26600;SDS011;14241;49.260;10.496;2023-07-16T12:54:50;3.40;;;1.53;;
26600;SDS011;14241;49.260;10.496;2023-07-16T12:57:16;3.23;;;1.10;;
26600;SDS011;14241;49.260;10.496;2023-07-16T12:59:42;3.60;;;1.33;;
26600;SDS011;14241;49.260;10.496;2023-07-16T13:02:07;2.77;;;1.43;;
26600;SDS011;14241;49.260;10.496;2023-07-16T13:04:32;4.70;;;1.60;;
26600;SDS011;14241;49.260;10.496;2023-07-16T13:06:57;3.13;;;1.50;;
26600;SDS011;14241;49.260;10.496;2023-07-16T13:09:23;5.23;;;1.90;;
26600;SDS011;14241;49.260;10.496;2023-07-16T13:11:48;4.60;;;1.50;;
26600;SDS011;14241;49.260;10.496;2023-07-16T13:14:13;4.73;;;1.83;;
26600;SDS011;14241;49.260;10.496;2023-07-16T13:16:38;2.13;;;1.30;;
26600;SDS011;14241;49.260;10.496;2023-07-16T13:19:03;3.97;;;1.43;;
26600;SDS011;14241;49.260;10.496;2023-07-16T13:21:28;3.30;;;1.40;;
26600;SDS011;14241;49.260;10.496;2023-07-16T13:23:54;2.67;;;1.40;;
26600;SDS011;14241;49.260;10.496;2023-07-16T13:26:19;4.30;;;1.60;;
26600;SDS011;14241;49.260;10.496;2023-07-16T13:28:44;3.92;;;1.70;;
26600;SDS011;14241;49.260;10.496;2023-07-16T13:31:10;1.77;;;1.40;;
26600;SDS011;14241;49.260;10.496;2023-07-16T13:33:35;2.23;;;1.20;;
26600;SDS011;14241;49.260;10.496;2023-07-16T13:36:01;4.00;;;1.30;;
26600;SDS011;14241;49.260;10.496;2023-07-16T13:38:29;3.55;;;1.52;;
26600;SDS011;14241;49.260;10.496;2023-07-16T13:40:55;5.07;;;1.77;;
26600;SDS011;14241;49.260;10.496;2023-07-16T13:43:20;4.07;;;1.90;;
26600;SDS011;14241;49.260;10.496;2023-07-16T13:45:45;2.93;;;1.40;;
26600;SDS011;14241;49.260;10.496;2023-07-16T13:48:10;2.70;;;1.40;;
26600;SDS011;14241;49.260;10.496;2023-07-16T13:50:36;3.97;;;1.40;;
26600;SDS011;14241;49.260;10.496;2023-07-16T13:53:01;2.57;;;1.60;;
26600;SDS011;14241;49.260;10.496;2023-07-16T13:55:27;5.28;;;1.80;;
26600;SDS011;14241;49.260;10.496;2023-07-16T13:57:53;3.90;;;1.48;;
26600;SDS011;14241;49.260;10.496;2023-07-16T14:00:18;5.33;;;1.60;;
26600;SDS011;14241;49.260;10.496;2023-07-16T14:02:45;2.47;;;1.63;;
26600;SDS011;14241;49.260;10.496;2023-07-16T14:05:10;5.45;;;1.80;;
26600;SDS011;14241;49.260;10.496;2023-07-16T14:07:35;3.67;;;1.47;;
26600;SDS011;14241;49.260;10.496;2023-07-16T14:10:00;2.33;;;1.27;;
26600;SDS011;14241;49.260;10.496;2023-07-16T14:12:25;4.13;;;1.80;;
26600;SDS011;14241;49.260;10.496;2023-07-16T14:14:50;4.90;;;1.43;;
26600;SDS011;14241;49.260;10.496;2023-07-16T14:17:16;2.58;;;1.33;;
26600;SDS011;14241;49.260;10.496;2023-07-16T14:19:41;2.30;;;1.40;;
26600;SDS011;14241;49.260;10.496;2023-07-16T14:22:06;4.30;;;1.40;;
26600;SDS011;14241;49.260;10.496;2023-07-16T14:24:31;3.03;;;1.53;;
26600;SDS011;14241;49.260;10.496;2023-07-16T14:26:57;2.70;;;1.37;;
26600;SDS011;14241;49.260;10.496;2023-07-16T14:29:24;3.55;;;1.40;;
26600;SDS011;14241;49.260;10.496;2023-07-16T14:31:49;2.13;;;1.30;;
26600;SDS011;14241;49.260;10.496;2023-07-16T14:34:14;2.07;;;1.17;;